createdAt,value
2022-09-27T00:00:59.847Z,40.63
2022-09-27T00:03:27.931Z,41.73
2022-09-27T00:06:05.381Z,41.10
2022-09-27T00:08:33.779Z,42.00
2022-09-27T00:11:02.708Z,43.33
2022-09-27T00:13:30.545Z,44.77
2022-09-27T00:15:59.594Z,42.13
2022-09-27T00:18:27.889Z,42.33
2022-09-27T00:20:55.624Z,45.10
2022-09-27T00:23:24.676Z,44.03
2022-09-27T00:25:58.719Z,45.00
2022-09-27T00:28:27.278Z,46.23
2022-09-27T00:30:55.294Z,43.73
2022-09-27T00:33:22.901Z,47.90
2022-09-27T00:35:50.561Z,42.67
2022-09-27T00:38:18.490Z,40.23
2022-09-27T00:40:48.636Z,43.47
2022-09-27T00:43:20.307Z,41.63
2022-09-27T00:45:51.207Z,43.17
2022-09-27T00:48:23.717Z,42.57
2022-09-27T00:50:54.129Z,45.13
2022-09-27T00:53:28.001Z,42.67
2022-09-27T00:56:00.374Z,41.83
2022-09-27T00:58:32.166Z,42.73
2022-09-27T01:01:03.499Z,41.77
2022-09-27T01:03:40.050Z,45.97
2022-09-27T01:06:10.019Z,45.97
2022-09-27T01:08:37.597Z,46.87
2022-09-27T01:11:15.531Z,43.33
2022-09-27T01:13:53.023Z,43.13
2022-09-27T01:16:31.108Z,41.77
2022-09-27T01:19:12.049Z,45.30
2022-09-27T01:21:45.949Z,44.00
2022-09-27T01:24:37.326Z,44.43
2022-09-27T01:27:29.886Z,49.83
2022-09-27T01:30:25.087Z,46.87
2022-09-27T01:32:59.419Z,46.00
2022-09-27T01:35:35.418Z,47.33
2022-09-27T01:38:14.933Z,47.47
2022-09-27T01:40:52.211Z,48.17
2022-09-27T01:43:25.321Z,46.73
2022-09-27T01:45:59.917Z,49.33
2022-09-27T01:48:34.874Z,45.30
2022-09-27T01:51:08.270Z,46.73
2022-09-27T01:53:39.285Z,47.30
2022-09-27T01:56:13.865Z,45.87
2022-09-27T01:58:47.012Z,45.73
2022-09-27T02:01:18.911Z,45.33
2022-09-27T02:03:50.158Z,42.93
2022-09-27T02:06:22.449Z,45.87
2022-09-27T02:08:55.785Z,46.77
2022-09-27T02:11:23.704Z,42.90
2022-09-27T02:13:55.517Z,44.30
2022-09-27T02:16:33.923Z,42.23
2022-09-27T02:19:10.969Z,40.73
2022-09-27T02:21:43.796Z,42.97
2022-09-27T02:24:15.227Z,42.90
2022-09-27T02:26:46.618Z,41.20
2022-09-27T02:29:19.660Z,44.77
2022-09-27T02:31:48.675Z,40.17
2022-09-27T02:34:20.858Z,41.00
2022-09-27T02:36:49.205Z,41.13
2022-09-27T02:39:19.161Z,37.50
2022-09-27T02:41:47.179Z,40.03
2022-09-27T02:44:17.529Z,35.93
2022-09-27T02:47:09.805Z,39.00
2022-09-27T02:49:51.000Z,42.07
2022-09-27T02:52:31.199Z,39.57
2022-09-27T02:55:09.171Z,39.90
2022-09-27T02:57:48.718Z,40.70
2022-09-27T03:00:20.438Z,41.80
2022-09-27T03:02:59.518Z,40.43
2022-09-27T03:05:30.155Z,42.13
2022-09-27T03:07:57.923Z,44.50
2022-09-27T03:10:27.787Z,40.20
2022-09-27T03:12:56.743Z,41.17
2022-09-27T03:15:24.312Z,43.03
2022-09-27T03:17:53.285Z,45.23
2022-09-27T03:20:20.860Z,40.57
2022-09-27T03:22:48.471Z,38.67
2022-09-27T03:25:16.279Z,38.37
2022-09-27T03:27:44.569Z,37.33
2022-09-27T03:30:15.043Z,35.50
2022-09-27T03:32:44.180Z,35.77
2022-09-27T03:35:13.725Z,38.10
2022-09-27T03:37:41.424Z,37.70
2022-09-27T03:40:10.318Z,35.57
2022-09-27T03:42:38.861Z,39.20
2022-09-27T03:45:07.172Z,36.33
2022-09-27T03:47:34.848Z,38.80
2022-09-27T03:50:02.446Z,39.67
2022-09-27T03:52:31.379Z,37.77
2022-09-27T03:55:02.155Z,37.13
2022-09-27T03:57:30.764Z,34.23
2022-09-27T03:59:59.870Z,34.00
2022-09-27T04:02:27.942Z,37.63
2022-09-27T04:04:55.586Z,35.70
2022-09-27T04:07:23.549Z,35.53
2022-09-27T04:09:52.502Z,33.20
2022-09-27T04:12:20.139Z,32.60
2022-09-27T04:14:47.701Z,32.03
2022-09-27T04:17:15.292Z,34.07
2022-09-27T04:19:42.877Z,33.30
2022-09-27T04:22:10.819Z,34.30
2022-09-27T04:24:38.450Z,32.17
2022-09-27T04:27:07.932Z,34.30
2022-09-27T04:29:35.521Z,32.20
2022-09-27T04:32:03.131Z,30.13
2022-09-27T04:34:48.425Z,30.03
2022-09-27T04:37:15.993Z,28.13
2022-09-27T04:39:43.559Z,28.40
2022-09-27T04:42:12.514Z,33.87
2022-09-27T04:44:40.446Z,31.13
2022-09-27T04:49:40.506Z,30.33
2022-09-27T04:52:08.090Z,30.93
2022-09-27T04:54:35.686Z,30.40
2022-09-27T04:57:03.266Z,28.73
2022-09-27T04:59:32.207Z,30.27
2022-09-27T05:02:00.610Z,31.17
2022-09-27T05:04:28.651Z,31.90
2022-09-27T05:06:57.320Z,32.30
2022-09-27T05:09:25.152Z,29.20
2022-09-27T05:11:52.754Z,27.13
2022-09-27T05:14:20.625Z,25.17
2022-09-27T05:16:49.665Z,24.70
2022-09-27T05:19:17.358Z,25.47
2022-09-27T05:21:45.049Z,25.77
2022-09-27T05:24:12.618Z,24.47
2022-09-27T05:26:40.194Z,25.53
2022-09-27T05:29:07.760Z,26.23
2022-09-27T05:31:35.374Z,24.63
2022-09-27T05:34:04.357Z,26.33
2022-09-27T05:36:32.429Z,28.33
2022-09-27T05:38:59.985Z,26.77
2022-09-27T05:41:27.690Z,27.40
2022-09-27T05:43:55.914Z,25.90
2022-09-27T05:46:23.530Z,24.03
2022-09-27T05:48:51.246Z,25.20
2022-09-27T05:51:21.026Z,23.73
2022-09-27T05:53:48.774Z,23.33
2022-09-27T05:56:17.066Z,23.20
2022-09-27T05:58:44.703Z,23.47
2022-09-27T06:01:12.340Z,23.63
2022-09-27T06:03:41.102Z,22.77
2022-09-27T06:06:10.582Z,23.03
2022-09-27T06:08:40.092Z,23.63
2022-09-27T06:11:10.038Z,22.87
2022-09-27T06:13:37.863Z,23.83
2022-09-27T06:16:06.201Z,23.60
2022-09-27T06:18:33.995Z,23.93
2022-09-27T06:21:02.298Z,24.57
2022-09-27T06:23:32.615Z,23.77
2022-09-27T06:26:04.847Z,24.53
2022-09-27T06:28:33.037Z,25.37
2022-09-27T06:31:01.510Z,24.20
2022-09-27T06:33:29.514Z,24.20
2022-09-27T06:35:57.233Z,26.80
2022-09-27T06:38:25.916Z,24.20
2022-09-27T06:40:53.560Z,23.50
2022-09-27T06:43:22.715Z,24.10
2022-09-27T06:45:50.427Z,23.97
2022-09-27T06:48:18.485Z,24.80
2022-09-27T06:50:47.787Z,24.47
2022-09-27T06:53:16.537Z,24.60
2022-09-27T06:55:45.406Z,22.83
2022-09-27T06:58:30.966Z,23.60
2022-09-27T07:00:59.993Z,24.87
2022-09-27T07:03:35.339Z,24.23
2022-09-27T07:06:06.231Z,24.43
2022-09-27T07:08:35.730Z,23.97
2022-09-27T07:11:05.840Z,25.73
2022-09-27T07:13:34.482Z,26.63
2022-09-27T07:16:03.917Z,24.23
2022-09-27T07:18:31.535Z,24.63
2022-09-27T07:21:00.964Z,24.60
2022-09-27T07:23:29.017Z,25.07
2022-09-27T07:25:56.606Z,23.27
2022-09-27T07:28:24.374Z,24.40
2022-09-27T07:30:56.534Z,25.40
2022-09-27T07:33:25.553Z,25.57
2022-09-27T07:35:53.154Z,23.67
2022-09-27T07:38:20.767Z,25.10
2022-09-27T07:40:48.488Z,24.90
2022-09-27T07:43:16.214Z,24.90
2022-09-27T07:45:43.797Z,25.40
2022-09-27T07:48:14.682Z,24.63
2022-09-27T07:50:43.901Z,24.77
2022-09-27T07:53:13.221Z,24.13
2022-09-27T07:55:42.291Z,25.13
2022-09-27T07:58:11.565Z,26.10
2022-09-27T08:00:40.703Z,24.37
2022-09-27T08:03:09.569Z,24.63
2022-09-27T08:05:37.575Z,24.97
2022-09-27T08:08:06.543Z,24.97
2022-09-27T08:10:35.454Z,25.73
2022-09-27T08:13:04.061Z,25.67
2022-09-27T08:15:32.626Z,25.83
2022-09-27T08:18:00.606Z,25.87
2022-09-27T08:20:28.206Z,24.93
2022-09-27T08:22:56.077Z,26.00
2022-09-27T08:25:25.039Z,25.20
2022-09-27T08:27:57.327Z,25.43
2022-09-27T08:30:25.254Z,26.20
2022-09-27T08:32:56.295Z,26.07
2022-09-27T08:35:24.193Z,25.90
2022-09-27T08:37:56.495Z,26.47
2022-09-27T08:40:32.634Z,26.37
2022-09-27T08:43:07.287Z,26.00
2022-09-27T08:45:43.046Z,25.20
2022-09-27T08:48:11.386Z,27.07
2022-09-27T08:50:43.378Z,24.83
2022-09-27T08:53:20.618Z,25.20
2022-09-27T08:55:52.217Z,26.47
2022-09-27T08:58:25.107Z,25.50
2022-09-27T09:00:55.795Z,26.17
2022-09-27T09:03:26.706Z,25.47
2022-09-27T09:06:08.694Z,26.17
2022-09-27T09:08:47.458Z,24.70
2022-09-27T09:11:53.634Z,26.00
2022-09-27T09:14:39.675Z,25.73
2022-09-27T09:17:21.401Z,25.63
2022-09-27T09:20:04.040Z,26.40
2022-09-27T09:22:45.486Z,26.33
2022-09-27T09:25:24.658Z,25.93
2022-09-27T09:28:05.456Z,26.07
2022-09-27T09:30:41.917Z,24.57
2022-09-27T09:33:19.398Z,25.40
2022-09-27T09:35:54.789Z,26.60
2022-09-27T09:38:27.395Z,25.47
2022-09-27T09:40:59.620Z,23.60
2022-09-27T09:43:34.881Z,23.80
2022-09-27T09:46:06.565Z,25.80
2022-09-27T09:48:44.275Z,25.20
2022-09-27T09:51:18.894Z,26.10
2022-09-27T09:53:52.571Z,24.27
2022-09-27T09:56:25.625Z,24.13
2022-09-27T09:58:57.747Z,24.20
2022-09-27T10:01:29.541Z,24.57
2022-09-27T10:03:57.611Z,22.97
2022-09-27T10:06:27.525Z,23.73
2022-09-27T10:08:55.768Z,22.73
2022-09-27T10:11:26.860Z,22.23
2022-09-27T10:13:56.557Z,23.17
2022-09-27T10:16:28.775Z,22.67
2022-09-27T10:19:01.143Z,23.27
2022-09-27T10:21:31.319Z,22.97
2022-09-27T10:24:13.528Z,22.23
2022-09-27T10:26:46.938Z,22.60
2022-09-27T10:29:24.141Z,23.03
2022-09-27T10:31:53.487Z,23.37
2022-09-27T10:34:31.781Z,23.77
2022-09-27T10:37:17.177Z,24.23
2022-09-27T10:39:46.451Z,22.93
2022-09-27T10:42:32.606Z,22.63
2022-09-27T10:45:23.606Z,22.10
2022-09-27T10:47:51.482Z,21.80
2022-09-27T10:50:49.871Z,22.17
2022-09-27T10:53:15.959Z,21.97
2022-09-27T10:55:47.970Z,21.77
2022-09-27T10:58:20.898Z,21.80
2022-09-27T11:00:58.061Z,21.20
2022-09-27T11:03:28.878Z,22.10
2022-09-27T11:05:56.925Z,22.03
2022-09-27T11:08:30.233Z,22.80
2022-09-27T11:11:17.396Z,21.57
2022-09-27T11:13:59.881Z,21.60
2022-09-27T11:16:42.972Z,22.50
2022-09-27T11:19:22.293Z,22.90
2022-09-27T11:21:56.641Z,21.87
2022-09-27T11:24:41.236Z,22.33
2022-09-27T11:27:20.272Z,20.93
2022-09-27T11:30:02.790Z,22.00
2022-09-27T11:32:46.100Z,22.20
2022-09-27T11:35:32.464Z,24.03
2022-09-27T11:38:12.609Z,21.87
2022-09-27T11:41:00.369Z,22.10
2022-09-27T11:43:41.870Z,22.20
2022-09-27T11:46:29.210Z,22.07
2022-09-27T11:49:31.093Z,21.80
2022-09-27T11:52:12.420Z,21.77
2022-09-27T11:54:58.449Z,20.80
2022-09-27T11:57:32.012Z,20.70
2022-09-27T12:00:07.414Z,21.17
2022-09-27T12:03:05.858Z,21.67
2022-09-27T12:05:42.166Z,21.57
2022-09-27T12:08:22.975Z,21.00
2022-09-27T12:10:59.487Z,21.33
2022-09-27T12:13:34.257Z,22.50
2022-09-27T12:16:03.730Z,19.60
2022-09-27T12:18:37.991Z,22.07
2022-09-27T12:21:09.963Z,20.63
2022-09-27T12:23:42.771Z,21.50
2022-09-27T12:26:14.710Z,21.00
2022-09-27T12:28:49.438Z,21.53
2022-09-27T12:31:30.047Z,21.20
2022-09-27T12:34:09.473Z,21.57
2022-09-27T12:36:45.387Z,20.27
2022-09-27T12:39:21.239Z,20.40
2022-09-27T12:41:56.410Z,20.77
2022-09-27T12:44:24.339Z,20.20
2022-09-27T12:47:05.829Z,20.80
2022-09-27T12:49:45.277Z,22.23
2022-09-27T12:52:23.370Z,21.30
2022-09-27T12:55:16.189Z,21.90
2022-09-27T12:57:52.678Z,21.20
2022-09-27T13:00:23.735Z,20.90
2022-09-27T13:03:27.448Z,21.50
2022-09-27T13:06:21.527Z,22.87
2022-09-27T13:09:08.323Z,21.17
2022-09-27T13:11:48.892Z,21.13
2022-09-27T13:14:21.294Z,20.40
2022-09-27T13:16:51.307Z,20.87
2022-09-27T13:19:43.152Z,22.00
2022-09-27T13:22:35.002Z,21.87
2022-09-27T13:25:16.597Z,22.00
2022-09-27T13:27:44.146Z,20.20
2022-09-27T13:30:50.557Z,19.30
2022-09-27T13:33:46.550Z,20.80
2022-09-27T13:36:32.819Z,20.43
2022-09-27T13:39:19.813Z,21.27
2022-09-27T13:42:08.328Z,21.00
2022-09-27T13:44:44.340Z,20.80
2022-09-27T13:47:27.513Z,20.90
2022-09-27T13:50:00.502Z,20.93
2022-09-27T13:52:34.647Z,21.30
2022-09-27T13:55:03.949Z,21.67
2022-09-27T13:57:50.849Z,22.50
2022-09-27T14:00:21.541Z,22.00
2022-09-27T14:03:05.150Z,21.80
2022-09-27T14:05:38.883Z,22.87
2022-09-27T14:08:15.245Z,21.77
2022-09-27T14:10:44.553Z,21.33
2022-09-27T14:13:20.018Z,20.97
2022-09-27T14:15:48.449Z,21.20
2022-09-27T14:18:16.121Z,20.47
2022-09-27T14:20:46.254Z,22.10
2022-09-27T14:23:18.955Z,21.60
2022-09-27T14:25:47.915Z,20.53
2022-09-27T14:28:25.357Z,21.40
2022-09-27T14:31:14.693Z,22.23
2022-09-27T14:33:42.308Z,21.10
2022-09-27T14:36:41.583Z,20.53
2022-09-27T14:39:15.179Z,20.43
2022-09-27T14:41:42.805Z,20.87
2022-09-27T14:44:16.570Z,20.67
2022-09-27T14:46:44.265Z,20.40
2022-09-27T14:49:23.085Z,19.80
2022-09-27T14:51:54.271Z,19.30
2022-09-27T14:54:25.193Z,19.60
2022-09-27T14:56:54.555Z,20.50
2022-09-27T14:59:30.833Z,19.23
2022-09-27T15:02:01.700Z,18.90
2022-09-27T15:04:32.632Z,19.30
2022-09-27T15:07:01.777Z,19.87
2022-09-27T15:09:33.143Z,19.50
2022-09-27T15:12:05.104Z,19.80
2022-09-27T15:14:37.485Z,18.30
2022-09-27T15:17:06.273Z,20.60
2022-09-27T15:19:34.422Z,20.90
2022-09-27T15:22:23.346Z,20.13
2022-09-27T15:24:50.962Z,19.13
2022-09-27T15:27:21.529Z,20.10
2022-09-27T15:29:52.366Z,20.30
2022-09-27T15:32:23.078Z,20.17
2022-09-27T15:34:50.886Z,19.70
2022-09-27T15:37:28.253Z,19.77
2022-09-27T15:39:55.785Z,19.63
2022-09-27T15:42:23.736Z,20.87
2022-09-27T15:44:54.160Z,18.90
2022-09-27T15:47:41.190Z,19.37
2022-09-27T15:50:34.738Z,20.10
2022-09-27T15:53:05.493Z,19.37
2022-09-27T15:55:35.352Z,20.33
2022-09-27T15:58:06.342Z,20.43
2022-09-27T16:00:36.899Z,20.17
2022-09-27T16:03:04.494Z,20.57
2022-09-27T16:05:33.145Z,18.97
2022-09-27T16:08:01.094Z,20.27
2022-09-27T16:10:36.322Z,20.30
2022-09-27T16:13:03.870Z,19.40
2022-09-27T16:15:31.784Z,20.77
2022-09-27T16:18:01.000Z,20.57
2022-09-27T16:20:29.173Z,21.07
2022-09-27T16:22:57.598Z,21.90
2022-09-27T16:25:25.367Z,21.20
2022-09-27T16:27:53.629Z,21.00
2022-09-27T16:30:23.246Z,22.77
2022-09-27T16:32:50.873Z,21.10
2022-09-27T16:35:22.593Z,21.40
2022-09-27T16:37:50.359Z,20.63
2022-09-27T16:40:19.004Z,20.70
2022-09-27T16:42:49.138Z,20.93
2022-09-27T16:45:19.412Z,20.80
2022-09-27T16:47:47.469Z,22.17
2022-09-27T16:50:33.315Z,21.33
2022-09-27T16:53:02.241Z,21.20
2022-09-27T16:55:30.262Z,21.43
2022-09-27T16:57:59.575Z,21.83
2022-09-27T17:00:28.317Z,23.07
2022-09-27T17:02:55.905Z,22.73
2022-09-27T17:05:23.743Z,24.93
2022-09-27T17:07:52.331Z,24.00
2022-09-27T17:10:21.582Z,24.03
2022-09-27T17:12:49.662Z,22.93
2022-09-27T17:15:17.782Z,22.30
2022-09-27T17:17:49.225Z,23.50
2022-09-27T17:20:16.818Z,23.40
2022-09-27T17:22:44.501Z,23.67
2022-09-27T17:25:12.130Z,22.07
2022-09-27T17:27:41.031Z,21.73
2022-09-27T17:30:09.562Z,22.90
2022-09-27T17:32:38.657Z,22.17
2022-09-27T17:35:09.134Z,21.80
2022-09-27T17:37:36.778Z,22.53
2022-09-27T17:40:05.006Z,23.53
2022-09-27T17:42:33.590Z,24.53
2022-09-27T17:45:02.512Z,23.60
2022-09-27T17:47:47.498Z,25.63
2022-09-27T17:50:28.539Z,25.53
2022-09-27T17:52:58.008Z,26.73
2022-09-27T17:55:26.920Z,25.40
2022-09-27T17:57:54.457Z,24.80
2022-09-27T18:00:23.349Z,24.03
2022-09-27T18:02:51.101Z,24.73
2022-09-27T18:05:21.089Z,24.53
2022-09-27T18:07:48.711Z,23.47
2022-09-27T18:10:17.798Z,26.10
2022-09-27T18:12:45.440Z,24.60
2022-09-27T18:15:13.086Z,24.87
2022-09-27T18:17:43.327Z,25.80
2022-09-27T18:20:11.296Z,24.60
2022-09-27T18:22:38.850Z,24.90
2022-09-27T18:25:07.614Z,24.70
2022-09-27T18:27:35.534Z,25.83
2022-09-27T18:30:03.353Z,24.53
2022-09-27T18:32:30.915Z,25.53
2022-09-27T18:34:59.766Z,25.00
2022-09-27T18:37:27.333Z,25.20
2022-09-27T18:39:55.580Z,25.43
2022-09-27T18:42:23.128Z,25.33
2022-09-27T18:44:50.908Z,24.43
2022-09-27T18:47:18.634Z,24.60
2022-09-27T18:49:46.191Z,24.67
2022-09-27T18:52:15.089Z,23.83
2022-09-27T18:54:43.558Z,24.83
2022-09-27T18:57:11.083Z,25.17
2022-09-27T18:59:38.618Z,23.97
2022-09-27T19:02:06.205Z,24.50
2022-09-27T19:04:34.025Z,25.13
2022-09-27T19:07:01.824Z,25.50
2022-09-27T19:09:31.261Z,24.47
2022-09-27T19:11:58.819Z,25.03
2022-09-27T19:14:26.838Z,25.33
2022-09-27T19:16:54.471Z,25.90
2022-09-27T19:19:22.124Z,25.90
2022-09-27T19:21:49.961Z,24.87
2022-09-27T19:24:18.771Z,24.30
2022-09-27T19:26:47.681Z,26.30
2022-09-27T19:29:15.345Z,28.13
2022-09-27T19:31:43.298Z,28.67
2022-09-27T19:34:11.786Z,27.90
2022-09-27T19:36:39.394Z,27.73
2022-09-27T19:39:07.902Z,26.73
2022-09-27T19:41:35.429Z,26.53
2022-09-27T19:44:04.399Z,24.20
2022-09-27T19:46:32.025Z,26.20
2022-09-27T19:49:01.272Z,24.73
2022-09-27T19:51:30.881Z,24.60
2022-09-27T19:53:58.426Z,23.23
2022-09-27T19:56:26.079Z,23.50
2022-09-27T19:58:53.642Z,23.70
2022-09-27T20:01:24.202Z,24.70
2022-09-27T20:03:55.175Z,24.40
2022-09-27T20:06:22.894Z,24.60
2022-09-27T20:08:50.971Z,23.60
2022-09-27T20:11:20.153Z,24.20
2022-09-27T20:13:47.985Z,24.07
2022-09-27T20:16:17.962Z,23.10
2022-09-27T20:18:48.268Z,24.43
2022-09-27T20:21:17.483Z,24.37
2022-09-27T20:23:45.316Z,23.77
2022-09-27T20:26:14.985Z,22.90
2022-09-27T20:28:43.987Z,23.97
2022-09-27T20:31:13.007Z,23.40
2022-09-27T20:33:43.857Z,23.77
2022-09-27T20:36:14.782Z,23.27
2022-09-27T20:38:43.289Z,22.97
2022-09-27T20:41:11.845Z,23.80
2022-09-27T20:43:39.843Z,23.20
2022-09-27T20:46:08.794Z,23.20
2022-09-27T20:48:37.489Z,22.87
2022-09-27T20:51:05.797Z,23.70
2022-09-27T20:53:36.037Z,23.00
2022-09-27T20:56:03.734Z,22.63
2022-09-27T20:58:33.031Z,22.77
2022-09-27T21:01:06.576Z,22.57
2022-09-27T21:03:34.363Z,22.23
2022-09-27T21:06:02.254Z,22.83
2022-09-27T21:08:30.958Z,22.10
2022-09-27T21:11:07.245Z,22.90
2022-09-27T21:13:35.349Z,23.00
2022-09-27T21:16:04.779Z,23.20
2022-09-27T21:18:32.489Z,24.80
2022-09-27T21:21:01.232Z,25.67
2022-09-27T21:23:29.899Z,27.67
2022-09-27T21:26:06.781Z,28.80
2022-09-27T21:28:35.825Z,28.40
2022-09-27T21:31:05.508Z,26.53
2022-09-27T21:33:33.244Z,26.40
2022-09-27T21:36:01.693Z,24.80
2022-09-27T21:38:30.824Z,24.87
2022-09-27T21:40:59.438Z,24.93
2022-09-27T21:43:30.150Z,24.97
2022-09-27T21:46:02.465Z,24.60
2022-09-27T21:48:30.955Z,24.33
2022-09-27T21:51:09.537Z,24.60
2022-09-27T21:53:38.739Z,22.57
2022-09-27T21:56:07.663Z,22.73
2022-09-27T21:58:38.114Z,22.97
2022-09-27T22:01:10.239Z,22.63
2022-09-27T22:03:38.729Z,24.00
2022-09-27T22:06:09.020Z,24.20
2022-09-27T22:08:36.573Z,22.93
